sensor_id;sensor_type;location;lat;lon;timestamp;temperature;humidity
9175;DHT22;54374;50.196;8.050;2022-09-03T00:01:19;10.60;99.90
9175;DHT22;54374;50.196;8.050;2022-09-03T00:03:52;10.60;99.90
9175;DHT22;54374;50.196;8.050;2022-09-03T00:06:26;10.60;99.90
9175;DHT22;54374;50.196;8.050;2022-09-03T00:08:59;10.60;99.90
9175;DHT22;54374;50.196;8.050;2022-09-03T00:11:34;10.60;99.90
9175;DHT22;54374;50.196;8.050;2022-09-03T00:14:07;10.60;99.90
9175;DHT22;54374;50.196;8.050;2022-09-03T00:16:42;10.60;99.90
9175;DHT22;54374;50.196;8.050;2022-09-03T00:19:11;10.60;99.90
9175;DHT22;54374;50.196;8.050;2022-09-03T00:21:45;10.50;99.90
9175;DHT22;54374;50.196;8.050;2022-09-03T00:24:17;10.50;99.90
9175;DHT22;54374;50.196;8.050;2022-09-03T00:26:49;10.50;99.90
9175;DHT22;54374;50.196;8.050;2022-09-03T00:29:23;10.60;99.90
9175;DHT22;54374;50.196;8.050;2022-09-03T00:31:53;10.60;99.90
9175;DHT22;54374;50.196;8.050;2022-09-03T00:34:28;10.40;99.90
9175;DHT22;54374;50.196;8.050;2022-09-03T00:36:56;10.40;99.90
9175;DHT22;54374;50.196;8.050;2022-09-03T00:39:26;10.40;99.90
9175;DHT22;54374;50.196;8.050;2022-09-03T00:42:03;10.30;99.90
9175;DHT22;54374;50.196;8.050;2022-09-03T00:44:58;10.30;99.90
9175;DHT22;54374;50.196;8.050;2022-09-03T00:47:36;10.30;99.90
9175;DHT22;54374;50.196;8.050;2022-09-03T00:50:11;10.30;99.90
9175;DHT22;54374;50.196;8.050;2022-09-03T00:52:46;10.40;99.90
9175;DHT22;54374;50.196;8.050;2022-09-03T00:55:25;10.30;99.90
9175;DHT22;54374;50.196;8.050;2022-09-03T00:58:06;10.30;99.90
9175;DHT22;54374;50.196;8.050;2022-09-03T01:00:34;10.40;99.90
9175;DHT22;54374;50.196;8.050;2022-09-03T01:03:06;10.30;99.90
9175;DHT22;54374;50.196;8.050;2022-09-03T01:05:42;10.20;99.90
9175;DHT22;54374;50.196;8.050;2022-09-03T01:08:25;10.00;99.90
9175;DHT22;54374;50.196;8.050;2022-09-03T01:11:03;10.00;99.90
9175;DHT22;54374;50.196;8.050;2022-09-03T01:13:37;10.00;99.90
9175;DHT22;54374;50.196;8.050;2022-09-03T01:16:16;10.00;99.90
9175;DHT22;54374;50.196;8.050;2022-09-03T01:18:50;10.00;99.90
9175;DHT22;54374;50.196;8.050;2022-09-03T01:21:46;10.00;99.90
9175;DHT22;54374;50.196;8.050;2022-09-03T01:24:56;10.00;99.90
9175;DHT22;54374;50.196;8.050;2022-09-03T01:27:38;10.00;99.90
9175;DHT22;54374;50.196;8.050;2022-09-03T01:30:11;10.00;99.90
9175;DHT22;54374;50.196;8.050;2022-09-03T01:32:46;10.30;99.90
9175;DHT22;54374;50.196;8.050;2022-09-03T01:35:21;10.00;99.90
9175;DHT22;54374;50.196;8.050;2022-09-03T01:38:00;10.00;99.90
9175;DHT22;54374;50.196;8.050;2022-09-03T01:40:34;10.10;99.90
9175;DHT22;54374;50.196;8.050;2022-09-03T01:43:18;10.00;99.90
9175;DHT22;54374;50.196;8.050;2022-09-03T01:45:53;10.00;99.90
9175;DHT22;54374;50.196;8.050;2022-09-03T01:48:41;9.90;99.90
9175;DHT22;54374;50.196;8.050;2022-09-03T01:51:19;9.90;99.90
9175;DHT22;54374;50.196;8.050;2022-09-03T01:54:25;10.00;99.90
9175;DHT22;54374;50.196;8.050;2022-09-03T01:57:13;9.90;99.90
9175;DHT22;54374;50.196;8.050;2022-09-03T01:59:49;10.00;99.90
9175;DHT22;54374;50.196;8.050;2022-09-03T02:02:20;9.90;99.90
9175;DHT22;54374;50.196;8.050;2022-09-03T02:04:58;9.80;99.90
9175;DHT22;54374;50.196;8.050;2022-09-03T02:07:30;9.80;99.90
9175;DHT22;54374;50.196;8.050;2022-09-03T02:10:00;9.80;99.90
9175;DHT22;54374;50.196;8.050;2022-09-03T02:12:29;9.80;99.90
9175;DHT22;54374;50.196;8.050;2022-09-03T02:15:04;9.80;99.90
9175;DHT22;54374;50.196;8.050;2022-09-03T02:17:34;9.80;99.90
9175;DHT22;54374;50.196;8.050;2022-09-03T02:20:04;9.90;99.90
9175;DHT22;54374;50.196;8.050;2022-09-03T02:22:32;9.70;99.90
9175;DHT22;54374;50.196;8.050;2022-09-03T02:25:00;9.80;99.90
9175;DHT22;54374;50.196;8.050;2022-09-03T02:27:27;9.80;99.90
9175;DHT22;54374;50.196;8.050;2022-09-03T02:29:55;9.80;99.90
9175;DHT22;54374;50.196;8.050;2022-09-03T02:32:22;9.60;99.90
9175;DHT22;54374;50.196;8.050;2022-09-03T02:34:53;9.80;99.90
9175;DHT22;54374;50.196;8.050;2022-09-03T02:37:20;9.70;99.90
9175;DHT22;54374;50.196;8.050;2022-09-03T02:39:48;9.80;99.90
9175;DHT22;54374;50.196;8.050;2022-09-03T02:42:17;9.80;99.90
9175;DHT22;54374;50.196;8.050;2022-09-03T02:44:49;9.90;99.90
9175;DHT22;54374;50.196;8.050;2022-09-03T02:47:19;9.80;99.90
9175;DHT22;54374;50.196;8.050;2022-09-03T02:49:46;9.90;99.90
9175;DHT22;54374;50.196;8.050;2022-09-03T02:52:15;9.90;99.90
9175;DHT22;54374;50.196;8.050;2022-09-03T02:54:42;9.80;99.90
9175;DHT22;54374;50.196;8.050;2022-09-03T02:57:12;9.80;99.90
9175;DHT22;54374;50.196;8.050;2022-09-03T02:59:42;9.90;99.90
9175;DHT22;54374;50.196;8.050;2022-09-03T03:02:10;9.90;99.90
9175;DHT22;54374;50.196;8.050;2022-09-03T03:04:38;10.00;99.90
9175;DHT22;54374;50.196;8.050;2022-09-03T03:07:06;10.00;99.90
9175;DHT22;54374;50.196;8.050;2022-09-03T03:09:34;10.10;99.90
9175;DHT22;54374;50.196;8.050;2022-09-03T03:12:02;10.10;99.90
9175;DHT22;54374;50.196;8.050;2022-09-03T03:14:29;10.20;99.90
9175;DHT22;54374;50.196;8.050;2022-09-03T03:16:55;10.10;99.90
9175;DHT22;54374;50.196;8.050;2022-09-03T03:19:22;10.10;99.90
9175;DHT22;54374;50.196;8.050;2022-09-03T03:21:50;10.20;99.90
9175;DHT22;54374;50.196;8.050;2022-09-03T03:24:17;10.40;99.90
9175;DHT22;54374;50.196;8.050;2022-09-03T03:26:45;10.40;99.90
9175;DHT22;54374;50.196;8.050;2022-09-03T03:29:14;10.40;99.90
9175;DHT22;54374;50.196;8.050;2022-09-03T03:31:43;10.40;99.90
9175;DHT22;54374;50.196;8.050;2022-09-03T03:34:10;10.40;99.90
9175;DHT22;54374;50.196;8.050;2022-09-03T03:36:37;10.50;99.90
9175;DHT22;54374;50.196;8.050;2022-09-03T03:39:04;10.50;99.90
9175;DHT22;54374;50.196;8.050;2022-09-03T03:41:31;10.50;99.90
9175;DHT22;54374;50.196;8.050;2022-09-03T03:44:02;10.60;99.90
9175;DHT22;54374;50.196;8.050;2022-09-03T03:46:32;10.50;99.90
9175;DHT22;54374;50.196;8.050;2022-09-03T03:48:59;10.60;99.90
9175;DHT22;54374;50.196;8.050;2022-09-03T03:51:27;10.70;99.90
9175;DHT22;54374;50.196;8.050;2022-09-03T03:53:56;10.80;99.90
9175;DHT22;54374;50.196;8.050;2022-09-03T03:56:24;10.80;99.90
9175;DHT22;54374;50.196;8.050;2022-09-03T03:58:52;10.90;99.90
9175;DHT22;54374;50.196;8.050;2022-09-03T04:01:22;10.90;99.90
9175;DHT22;54374;50.196;8.050;2022-09-03T04:03:50;10.80;99.90
9175;DHT22;54374;50.196;8.050;2022-09-03T04:06:19;10.70;99.90
9175;DHT22;54374;50.196;8.050;2022-09-03T04:08:47;10.80;99.90
9175;DHT22;54374;50.196;8.050;2022-09-03T04:11:17;10.80;99.90
9175;DHT22;54374;50.196;8.050;2022-09-03T04:13:45;10.80;99.90
9175;DHT22;54374;50.196;8.050;2022-09-03T04:16:13;10.80;99.90
9175;DHT22;54374;50.196;8.050;2022-09-03T04:18:42;10.90;99.90
9175;DHT22;54374;50.196;8.050;2022-09-03T04:21:10;10.90;99.90
9175;DHT22;54374;50.196;8.050;2022-09-03T04:23:39;11.10;99.90
9175;DHT22;54374;50.196;8.050;2022-09-03T04:26:07;11.10;99.90
9175;DHT22;54374;50.196;8.050;2022-09-03T04:28:34;11.10;99.90
9175;DHT22;54374;50.196;8.050;2022-09-03T04:31:02;11.10;99.90
9175;DHT22;54374;50.196;8.050;2022-09-03T04:33:30;11.10;99.90
9175;DHT22;54374;50.196;8.050;2022-09-03T04:36:03;11.10;99.90
9175;DHT22;54374;50.196;8.050;2022-09-03T04:38:31;11.10;99.90
9175;DHT22;54374;50.196;8.050;2022-09-03T04:40:58;11.00;99.90
9175;DHT22;54374;50.196;8.050;2022-09-03T04:43:27;11.00;99.90
9175;DHT22;54374;50.196;8.050;2022-09-03T04:45:57;11.10;99.90
9175;DHT22;54374;50.196;8.050;2022-09-03T04:48:25;11.10;99.90
9175;DHT22;54374;50.196;8.050;2022-09-03T04:50:52;11.20;99.90
9175;DHT22;54374;50.196;8.050;2022-09-03T04:53:22;11.20;99.90
9175;DHT22;54374;50.196;8.050;2022-09-03T04:55:48;11.30;99.90
9175;DHT22;54374;50.196;8.050;2022-09-03T04:58:15;11.10;99.90
9175;DHT22;54374;50.196;8.050;2022-09-03T05:00:43;11.20;99.90
9175;DHT22;54374;50.196;8.050;2022-09-03T05:03:10;11.30;99.90
9175;DHT22;54374;50.196;8.050;2022-09-03T05:05:37;11.30;99.90
9175;DHT22;54374;50.196;8.050;2022-09-03T05:08:04;11.40;99.90
9175;DHT22;54374;50.196;8.050;2022-09-03T05:10:33;11.50;99.90
9175;DHT22;54374;50.196;8.050;2022-09-03T05:13:02;11.50;99.90
9175;DHT22;54374;50.196;8.050;2022-09-03T05:15:29;11.50;99.90
9175;DHT22;54374;50.196;8.050;2022-09-03T05:17:58;11.60;99.90
9175;DHT22;54374;50.196;8.050;2022-09-03T05:20:27;11.70;99.90
9175;DHT22;54374;50.196;8.050;2022-09-03T05:22:55;11.70;99.90
9175;DHT22;54374;50.196;8.050;2022-09-03T05:25:22;11.80;99.90
9175;DHT22;54374;50.196;8.050;2022-09-03T05:27:51;11.70;99.90
9175;DHT22;54374;50.196;8.050;2022-09-03T05:30:19;11.70;99.90
9175;DHT22;54374;50.196;8.050;2022-09-03T05:32:47;12.00;99.90
9175;DHT22;54374;50.196;8.050;2022-09-03T05:35:14;11.90;99.90
9175;DHT22;54374;50.196;8.050;2022-09-03T05:37:41;11.80;99.90
9175;DHT22;54374;50.196;8.050;2022-09-03T05:40:08;12.10;99.90
9175;DHT22;54374;50.196;8.050;2022-09-03T05:42:36;12.10;99.90
9175;DHT22;54374;50.196;8.050;2022-09-03T05:45:08;12.10;99.90
9175;DHT22;54374;50.196;8.050;2022-09-03T05:47:36;12.10;99.90
9175;DHT22;54374;50.196;8.050;2022-09-03T05:50:06;12.00;99.90
9175;DHT22;54374;50.196;8.050;2022-09-03T05:52:35;12.10;99.90
9175;DHT22;54374;50.196;8.050;2022-09-03T05:55:02;12.10;99.90
9175;DHT22;54374;50.196;8.050;2022-09-03T05:57:30;12.20;99.90
9175;DHT22;54374;50.196;8.050;2022-09-03T05:59:56;12.20;99.90
9175;DHT22;54374;50.196;8.050;2022-09-03T06:02:26;12.30;99.90
9175;DHT22;54374;50.196;8.050;2022-09-03T06:04:53;12.30;99.90
9175;DHT22;54374;50.196;8.050;2022-09-03T06:07:20;12.30;99.90
9175;DHT22;54374;50.196;8.050;2022-09-03T06:09:47;12.40;99.90
9175;DHT22;54374;50.196;8.050;2022-09-03T06:12:15;12.30;99.90
9175;DHT22;54374;50.196;8.050;2022-09-03T06:14:42;12.30;99.90
9175;DHT22;54374;50.196;8.050;2022-09-03T06:17:09;12.20;99.90
9175;DHT22;54374;50.196;8.050;2022-09-03T06:19:38;12.20;99.90
9175;DHT22;54374;50.196;8.050;2022-09-03T06:22:05;12.20;99.90
9175;DHT22;54374;50.196;8.050;2022-09-03T06:24:32;12.10;99.90
9175;DHT22;54374;50.196;8.050;2022-09-03T06:26:59;12.20;99.90
9175;DHT22;54374;50.196;8.050;2022-09-03T06:29:26;12.20;99.90
9175;DHT22;54374;50.196;8.050;2022-09-03T06:31:53;12.20;99.90
9175;DHT22;54374;50.196;8.050;2022-09-03T06:34:20;12.30;99.90
9175;DHT22;54374;50.196;8.050;2022-09-03T06:36:51;12.20;99.90
9175;DHT22;54374;50.196;8.050;2022-09-03T06:39:18;12.20;99.90
9175;DHT22;54374;50.196;8.050;2022-09-03T06:41:45;12.20;99.90
9175;DHT22;54374;50.196;8.050;2022-09-03T06:44:12;12.30;99.90
9175;DHT22;54374;50.196;8.050;2022-09-03T06:46:40;12.30;99.90
9175;DHT22;54374;50.196;8.050;2022-09-03T06:49:08;12.30;99.90
9175;DHT22;54374;50.196;8.050;2022-09-03T06:51:36;12.30;99.90
9175;DHT22;54374;50.196;8.050;2022-09-03T06:54:06;12.40;99.90
9175;DHT22;54374;50.196;8.050;2022-09-03T06:56:34;12.50;99.90
9175;DHT22;54374;50.196;8.050;2022-09-03T06:59:04;12.70;99.90
9175;DHT22;54374;50.196;8.050;2022-09-03T07:01:32;12.80;99.90
9175;DHT22;54374;50.196;8.050;2022-09-03T07:04:01;12.80;99.90
9175;DHT22;54374;50.196;8.050;2022-09-03T07:06:31;12.80;99.90
9175;DHT22;54374;50.196;8.050;2022-09-03T07:08:58;12.80;99.90
9175;DHT22;54374;50.196;8.050;2022-09-03T07:11:29;12.80;99.90
9175;DHT22;54374;50.196;8.050;2022-09-03T07:13:58;12.90;99.90
9175;DHT22;54374;50.196;8.050;2022-09-03T07:16:29;12.90;99.90
9175;DHT22;54374;50.196;8.050;2022-09-03T07:18:56;13.00;99.90
9175;DHT22;54374;50.196;8.050;2022-09-03T07:21:26;13.10;99.90
9175;DHT22;54374;50.196;8.050;2022-09-03T07:23:54;13.10;99.90
9175;DHT22;54374;50.196;8.050;2022-09-03T07:26:23;13.20;99.90
9175;DHT22;54374;50.196;8.050;2022-09-03T07:28:52;13.20;99.90
9175;DHT22;54374;50.196;8.050;2022-09-03T07:31:20;13.20;99.90
9175;DHT22;54374;50.196;8.050;2022-09-03T07:33:52;13.50;99.90
9175;DHT22;54374;50.196;8.050;2022-09-03T07:36:22;13.40;99.90
9175;DHT22;54374;50.196;8.050;2022-09-03T07:38:50;13.40;99.90
9175;DHT22;54374;50.196;8.050;2022-09-03T07:41:17;13.60;99.90
9175;DHT22;54374;50.196;8.050;2022-09-03T07:43:45;13.70;99.90
9175;DHT22;54374;50.196;8.050;2022-09-03T07:46:15;13.70;99.90
9175;DHT22;54374;50.196;8.050;2022-09-03T07:48:49;13.70;99.90
9175;DHT22;54374;50.196;8.050;2022-09-03T07:51:17;13.80;99.90
9175;DHT22;54374;50.196;8.050;2022-09-03T07:53:45;13.80;99.90
9175;DHT22;54374;50.196;8.050;2022-09-03T07:56:13;13.90;99.90
9175;DHT22;54374;50.196;8.050;2022-09-03T07:58:41;13.90;99.90
9175;DHT22;54374;50.196;8.050;2022-09-03T08:01:11;14.00;99.90
9175;DHT22;54374;50.196;8.050;2022-09-03T08:03:43;14.10;99.90
9175;DHT22;54374;50.196;8.050;2022-09-03T08:06:10;14.20;99.90
9175;DHT22;54374;50.196;8.050;2022-09-03T08:08:38;14.30;99.90
9175;DHT22;54374;50.196;8.050;2022-09-03T08:11:07;14.40;99.90
9175;DHT22;54374;50.196;8.050;2022-09-03T08:13:36;14.50;99.90
9175;DHT22;54374;50.196;8.050;2022-09-03T08:16:04;14.50;99.90
9175;DHT22;54374;50.196;8.050;2022-09-03T08:18:31;14.70;99.90
9175;DHT22;54374;50.196;8.050;2022-09-03T08:21:05;14.80;99.90
9175;DHT22;54374;50.196;8.050;2022-09-03T08:23:36;14.90;99.90
9175;DHT22;54374;50.196;8.050;2022-09-03T08:26:03;15.10;99.90
9175;DHT22;54374;50.196;8.050;2022-09-03T08:28:30;15.20;99.90
9175;DHT22;54374;50.196;8.050;2022-09-03T08:31:04;15.30;99.90
9175;DHT22;54374;50.196;8.050;2022-09-03T08:33:31;15.50;99.90
9175;DHT22;54374;50.196;8.050;2022-09-03T08:36:08;15.60;99.90
9175;DHT22;54374;50.196;8.050;2022-09-03T08:38:38;15.70;99.90
9175;DHT22;54374;50.196;8.050;2022-09-03T08:41:07;15.70;99.90
9175;DHT22;54374;50.196;8.050;2022-09-03T08:46:36;15.90;99.90
9175;DHT22;54374;50.196;8.050;2022-09-03T08:49:07;16.00;99.90
9175;DHT22;54374;50.196;8.050;2022-09-03T08:51:37;16.10;99.90
9175;DHT22;54374;50.196;8.050;2022-09-03T08:54:06;16.20;99.90
9175;DHT22;54374;50.196;8.050;2022-09-03T08:56:38;16.30;99.90
9175;DHT22;54374;50.196;8.050;2022-09-03T08:59:07;16.40;99.90
9175;DHT22;54374;50.196;8.050;2022-09-03T09:01:42;16.50;99.90
9175;DHT22;54374;50.196;8.050;2022-09-03T09:04:21;16.50;99.90
9175;DHT22;54374;50.196;8.050;2022-09-03T09:06:54;16.50;99.90
9175;DHT22;54374;50.196;8.050;2022-09-03T09:09:28;16.70;99.90
9175;DHT22;54374;50.196;8.050;2022-09-03T09:12:03;16.80;99.90
9175;DHT22;54374;50.196;8.050;2022-09-03T09:14:42;16.90;99.90
9175;DHT22;54374;50.196;8.050;2022-09-03T09:17:24;17.00;99.90
9175;DHT22;54374;50.196;8.050;2022-09-03T09:20:05;17.10;99.90
9175;DHT22;54374;50.196;8.050;2022-09-03T09:22:38;17.10;99.90
9175;DHT22;54374;50.196;8.050;2022-09-03T09:25:10;17.20;99.90
9175;DHT22;54374;50.196;8.050;2022-09-03T09:27:46;17.30;99.90
9175;DHT22;54374;50.196;8.050;2022-09-03T09:30:17;17.40;99.90
9175;DHT22;54374;50.196;8.050;2022-09-03T09:32:44;17.40;99.90
9175;DHT22;54374;50.196;8.050;2022-09-03T09:35:12;17.40;99.90
9175;DHT22;54374;50.196;8.050;2022-09-03T09:37:49;17.50;99.90
9175;DHT22;54374;50.196;8.050;2022-09-03T09:40:25;17.50;99.90
9175;DHT22;54374;50.196;8.050;2022-09-03T09:43:05;17.50;99.90
9175;DHT22;54374;50.196;8.050;2022-09-03T09:45:33;17.60;99.90
9175;DHT22;54374;50.196;8.050;2022-09-03T09:48:01;17.80;99.90
9175;DHT22;54374;50.196;8.050;2022-09-03T09:50:28;18.10;99.90
9175;DHT22;54374;50.196;8.050;2022-09-03T09:53:01;18.30;99.90
9175;DHT22;54374;50.196;8.050;2022-09-03T09:55:31;19.60;99.90
9175;DHT22;54374;50.196;8.050;2022-09-03T09:58:05;18.40;99.90
9175;DHT22;54374;50.196;8.050;2022-09-03T10:00:34;18.30;99.90
9175;DHT22;54374;50.196;8.050;2022-09-03T10:03:06;18.10;99.90
9175;DHT22;54374;50.196;8.050;2022-09-03T10:05:36;18.10;99.90
9175;DHT22;54374;50.196;8.050;2022-09-03T10:08:17;17.80;99.90
9175;DHT22;54374;50.196;8.050;2022-09-03T10:10:49;17.70;99.90
9175;DHT22;54374;50.196;8.050;2022-09-03T10:13:18;17.60;99.90
9175;DHT22;54374;50.196;8.050;2022-09-03T10:15:50;17.40;99.90
9175;DHT22;54374;50.196;8.050;2022-09-03T10:18:25;17.40;99.90
9175;DHT22;54374;50.196;8.050;2022-09-03T10:20:59;17.40;99.90
9175;DHT22;54374;50.196;8.050;2022-09-03T10:23:39;17.50;99.90
9175;DHT22;54374;50.196;8.050;2022-09-03T10:26:17;17.60;99.90
9175;DHT22;54374;50.196;8.050;2022-09-03T10:28:50;17.70;99.90
9175;DHT22;54374;50.196;8.050;2022-09-03T10:31:29;17.90;99.90
9175;DHT22;54374;50.196;8.050;2022-09-03T10:34:02;18.00;99.90
9175;DHT22;54374;50.196;8.050;2022-09-03T10:36:37;18.20;99.90
9175;DHT22;54374;50.196;8.050;2022-09-03T10:39:12;18.40;99.90
9175;DHT22;54374;50.196;8.050;2022-09-03T10:41:49;18.40;99.90
9175;DHT22;54374;50.196;8.050;2022-09-03T10:44:34;18.30;99.90
9175;DHT22;54374;50.196;8.050;2022-09-03T10:47:15;18.40;99.90
9175;DHT22;54374;50.196;8.050;2022-09-03T10:49:54;18.60;99.90
9175;DHT22;54374;50.196;8.050;2022-09-03T10:52:32;18.60;99.90
9175;DHT22;54374;50.196;8.050;2022-09-03T10:55:13;18.80;99.90
9175;DHT22;54374;50.196;8.050;2022-09-03T10:57:50;19.00;99.90
9175;DHT22;54374;50.196;8.050;2022-09-03T11:00:19;19.10;99.90
9175;DHT22;54374;50.196;8.050;2022-09-03T11:03:12;19.20;99.90
9175;DHT22;54374;50.196;8.050;2022-09-03T11:05:59;19.20;99.90
9175;DHT22;54374;50.196;8.050;2022-09-03T11:08:30;19.30;99.90
9175;DHT22;54374;50.196;8.050;2022-09-03T11:11:08;19.40;99.90
9175;DHT22;54374;50.196;8.050;2022-09-03T11:13:40;19.40;99.90
9175;DHT22;54374;50.196;8.050;2022-09-03T11:16:14;19.50;99.90
9175;DHT22;54374;50.196;8.050;2022-09-03T11:18:47;19.70;99.90
9175;DHT22;54374;50.196;8.050;2022-09-03T11:21:19;19.80;99.90
9175;DHT22;54374;50.196;8.050;2022-09-03T11:23:50;19.90;99.90
9175;DHT22;54374;50.196;8.050;2022-09-03T11:26:20;19.90;99.90
9175;DHT22;54374;50.196;8.050;2022-09-03T11:28:55;19.90;99.90
9175;DHT22;54374;50.196;8.050;2022-09-03T11:31:30;19.90;99.90
9175;DHT22;54374;50.196;8.050;2022-09-03T11:34:03;19.90;99.90
9175;DHT22;54374;50.196;8.050;2022-09-03T11:36:32;19.80;99.90
9175;DHT22;54374;50.196;8.050;2022-09-03T11:39:11;19.70;99.90
9175;DHT22;54374;50.196;8.050;2022-09-03T11:41:40;19.70;99.90
9175;DHT22;54374;50.196;8.050;2022-09-03T11:44:15;19.70;99.90
9175;DHT22;54374;50.196;8.050;2022-09-03T11:46:52;19.70;99.90
9175;DHT22;54374;50.196;8.050;2022-09-03T11:49:27;19.70;99.90
9175;DHT22;54374;50.196;8.050;2022-09-03T11:51:59;20.00;99.90
9175;DHT22;54374;50.196;8.050;2022-09-03T11:54:27;20.30;99.90
9175;DHT22;54374;50.196;8.050;2022-09-03T11:57:09;20.60;99.90
9175;DHT22;54374;50.196;8.050;2022-09-03T11:59:38;20.70;99.90
9175;DHT22;54374;50.196;8.050;2022-09-03T12:02:15;20.80;99.90
9175;DHT22;54374;50.196;8.050;2022-09-03T12:04:54;20.80;99.90
9175;DHT22;54374;50.196;8.050;2022-09-03T12:07:39;20.80;99.90
9175;DHT22;54374;50.196;8.050;2022-09-03T12:10:18;20.90;99.90
9175;DHT22;54374;50.196;8.050;2022-09-03T12:12:59;21.00;99.90
9175;DHT22;54374;50.196;8.050;2022-09-03T12:15:51;21.00;99.90
9175;DHT22;54374;50.196;8.050;2022-09-03T12:18:23;21.10;99.90
9175;DHT22;54374;50.196;8.050;2022-09-03T12:21:02;20.90;99.90
9175;DHT22;54374;50.196;8.050;2022-09-03T12:23:32;20.80;99.90
9175;DHT22;54374;50.196;8.050;2022-09-03T12:26:02;20.50;99.90
9175;DHT22;54374;50.196;8.050;2022-09-03T12:28:34;20.30;99.90
9175;DHT22;54374;50.196;8.050;2022-09-03T12:31:08;20.20;99.90
9175;DHT22;54374;50.196;8.050;2022-09-03T12:33:40;20.20;99.90
9175;DHT22;54374;50.196;8.050;2022-09-03T12:36:08;20.20;99.90
9175;DHT22;54374;50.196;8.050;2022-09-03T12:38:35;20.30;99.90
9175;DHT22;54374;50.196;8.050;2022-09-03T12:41:02;20.50;99.90
9175;DHT22;54374;50.196;8.050;2022-09-03T12:43:31;20.60;99.90
9175;DHT22;54374;50.196;8.050;2022-09-03T12:45:58;20.60;99.90
9175;DHT22;54374;50.196;8.050;2022-09-03T12:48:25;20.70;99.90
9175;DHT22;54374;50.196;8.050;2022-09-03T12:51:01;20.80;99.90
9175;DHT22;54374;50.196;8.050;2022-09-03T12:53:29;21.00;99.90
9175;DHT22;54374;50.196;8.050;2022-09-03T12:55:59;21.10;99.90
9175;DHT22;54374;50.196;8.050;2022-09-03T12:58:34;21.20;99.90
9175;DHT22;54374;50.196;8.050;2022-09-03T13:01:06;21.20;99.90
9175;DHT22;54374;50.196;8.050;2022-09-03T13:03:43;21.10;99.90
9175;DHT22;54374;50.196;8.050;2022-09-03T13:06:12;21.00;99.90
9175;DHT22;54374;50.196;8.050;2022-09-03T13:08:45;20.90;99.90
9175;DHT22;54374;50.196;8.050;2022-09-03T13:11:15;20.80;99.90
9175;DHT22;54374;50.196;8.050;2022-09-03T13:13:53;20.70;99.90
9175;DHT22;54374;50.196;8.050;2022-09-03T13:19:43;20.70;99.90
9175;DHT22;54374;50.196;8.050;2022-09-03T13:22:20;20.70;99.90
9175;DHT22;54374;50.196;8.050;2022-09-03T13:27:43;21.00;99.90
9175;DHT22;54374;50.196;8.050;2022-09-03T13:30:14;21.00;99.90
9175;DHT22;54374;50.196;8.050;2022-09-03T13:32:52;21.10;99.90
9175;DHT22;54374;50.196;8.050;2022-09-03T13:35:27;21.10;99.90
9175;DHT22;54374;50.196;8.050;2022-09-03T13:37:58;21.20;99.90
9175;DHT22;54374;50.196;8.050;2022-09-03T13:40:35;21.10;99.90
9175;DHT22;54374;50.196;8.050;2022-09-03T13:43:13;21.10;99.90
9175;DHT22;54374;50.196;8.050;2022-09-03T13:45:50;21.10;99.90
9175;DHT22;54374;50.196;8.050;2022-09-03T13:48:20;21.20;99.90
9175;DHT22;54374;50.196;8.050;2022-09-03T13:51:22;21.30;99.90
9175;DHT22;54374;50.196;8.050;2022-09-03T13:54:02;21.30;99.90
9175;DHT22;54374;50.196;8.050;2022-09-03T13:56:43;21.30;99.90
9175;DHT22;54374;50.196;8.050;2022-09-03T13:59:19;21.30;99.90
9175;DHT22;54374;50.196;8.050;2022-09-03T14:02:04;21.30;99.90
9175;DHT22;54374;50.196;8.050;2022-09-03T14:04:42;21.30;99.90
9175;DHT22;54374;50.196;8.050;2022-09-03T14:07:16;21.20;99.90
9175;DHT22;54374;50.196;8.050;2022-09-03T14:09:55;21.30;99.90
9175;DHT22;54374;50.196;8.050;2022-09-03T14:12:34;21.40;99.90
9175;DHT22;54374;50.196;8.050;2022-09-03T14:15:09;21.30;99.90
9175;DHT22;54374;50.196;8.050;2022-09-03T14:17:46;21.30;99.90
9175;DHT22;54374;50.196;8.050;2022-09-03T14:20:20;21.30;99.90
9175;DHT22;54374;50.196;8.050;2022-09-03T14:22:52;21.20;99.90
9175;DHT22;54374;50.196;8.050;2022-09-03T14:25:23;21.00;99.90
9175;DHT22;54374;50.196;8.050;2022-09-03T14:27:51;21.10;99.90
9175;DHT22;54374;50.196;8.050;2022-09-03T14:30:30;21.10;99.90
9175;DHT22;54374;50.196;8.050;2022-09-03T14:33:09;21.20;99.90
9175;DHT22;54374;50.196;8.050;2022-09-03T14:35:52;21.20;99.90
9175;DHT22;54374;50.196;8.050;2022-09-03T14:41:49;21.30;99.90
9175;DHT22;54374;50.196;8.050;2022-09-03T14:44:34;21.30;99.90
9175;DHT22;54374;50.196;8.050;2022-09-03T14:47:14;21.30;99.90
9175;DHT22;54374;50.196;8.050;2022-09-03T14:50:06;21.40;99.90
9175;DHT22;54374;50.196;8.050;2022-09-03T14:55:55;21.30;99.90
9175;DHT22;54374;50.196;8.050;2022-09-03T14:58:34;21.50;99.90
9175;DHT22;54374;50.196;8.050;2022-09-03T15:01:09;21.30;99.90
9175;DHT22;54374;50.196;8.050;2022-09-03T15:03:58;21.30;99.90
9175;DHT22;54374;50.196;8.050;2022-09-03T15:06:46;21.30;99.90
9175;DHT22;54374;50.196;8.050;2022-09-03T15:09:30;21.40;99.90
9175;DHT22;54374;50.196;8.050;2022-09-03T15:12:02;21.30;99.90
9175;DHT22;54374;50.196;8.050;2022-09-03T15:14:37;21.30;99.90
9175;DHT22;54374;50.196;8.050;2022-09-03T15:17:19;21.30;99.90
9175;DHT22;54374;50.196;8.050;2022-09-03T15:20:02;21.20;99.90
9175;DHT22;54374;50.196;8.050;2022-09-03T15:23:06;21.20;99.90
9175;DHT22;54374;50.196;8.050;2022-09-03T15:25:48;20.90;99.90
9175;DHT22;54374;50.196;8.050;2022-09-03T15:28:25;20.90;99.90
9175;DHT22;54374;50.196;8.050;2022-09-03T15:31:01;20.60;99.90
9175;DHT22;54374;50.196;8.050;2022-09-03T15:33:39;20.60;99.90
9175;DHT22;54374;50.196;8.050;2022-09-03T15:36:16;20.50;99.90
9175;DHT22;54374;50.196;8.050;2022-09-03T15:38:49;20.50;99.90
9175;DHT22;54374;50.196;8.050;2022-09-03T15:41:28;20.50;99.90
9175;DHT22;54374;50.196;8.050;2022-09-03T15:43:58;20.50;99.90
9175;DHT22;54374;50.196;8.050;2022-09-03T15:46:47;20.50;99.90
9175;DHT22;54374;50.196;8.050;2022-09-03T15:49:30;20.60;99.90
9175;DHT22;54374;50.196;8.050;2022-09-03T15:52:08;20.60;99.90
9175;DHT22;54374;50.196;8.050;2022-09-03T15:54:48;20.60;99.90
9175;DHT22;54374;50.196;8.050;2022-09-03T15:57:21;20.70;99.90
9175;DHT22;54374;50.196;8.050;2022-09-03T15:59:57;20.70;99.90
9175;DHT22;54374;50.196;8.050;2022-09-03T16:02:30;20.70;99.90
9175;DHT22;54374;50.196;8.050;2022-09-03T16:05:07;20.60;99.90
9175;DHT22;54374;50.196;8.050;2022-09-03T16:08:01;20.60;99.90
9175;DHT22;54374;50.196;8.050;2022-09-03T16:10:47;20.50;99.90
9175;DHT22;54374;50.196;8.050;2022-09-03T16:16:10;20.40;99.90
9175;DHT22;54374;50.196;8.050;2022-09-03T16:18:51;20.30;99.90
9175;DHT22;54374;50.196;8.050;2022-09-03T16:21:23;20.40;99.90
9175;DHT22;54374;50.196;8.050;2022-09-03T16:23:55;20.30;99.90
9175;DHT22;54374;50.196;8.050;2022-09-03T16:26:29;20.30;99.90
9175;DHT22;54374;50.196;8.050;2022-09-03T16:29:02;20.30;99.90
9175;DHT22;54374;50.196;8.050;2022-09-03T16:31:41;20.20;99.90
9175;DHT22;54374;50.196;8.050;2022-09-03T16:34:17;20.20;99.90
9175;DHT22;54374;50.196;8.050;2022-09-03T16:36:54;20.10;99.90
9175;DHT22;54374;50.196;8.050;2022-09-03T16:39:35;20.10;99.90
9175;DHT22;54374;50.196;8.050;2022-09-03T16:42:12;20.10;99.90